createdAt,value
2018-08-16T00:00:27.806Z,73.48
2018-08-16T00:03:31.773Z,73.04
2018-08-16T00:06:35.687Z,73.76
2018-08-16T00:09:39.580Z,73.64
2018-08-16T00:12:45.099Z,74.05
2018-08-16T00:15:49.018Z,73.58
2018-08-16T00:18:52.950Z,74.21
2018-08-16T00:21:57.132Z,74.93
2018-08-16T00:25:01.058Z,73.93
2018-08-16T00:28:05.127Z,73.91
2018-08-16T00:31:09.379Z,74.22
2018-08-16T00:34:13.321Z,74.39
2018-08-16T00:37:17.315Z,73.95
2018-08-16T00:40:21.560Z,74.44
2018-08-16T00:43:25.665Z,74.04
2018-08-16T00:46:29.574Z,74.62
2018-08-16T00:49:33.506Z,74.17
2018-08-16T00:52:37.740Z,74.85
2018-08-16T00:55:41.865Z,74.08
2018-08-16T00:58:46.097Z,74.45
2018-08-16T01:01:50.001Z,74.71
2018-08-16T01:04:53.914Z,74.18
2018-08-16T01:07:58.047Z,74.70
2018-08-16T01:11:02.302Z,73.85
2018-08-16T01:14:06.926Z,74.32
2018-08-16T01:17:10.820Z,73.56
2018-08-16T01:20:14.792Z,74.35
2018-08-16T01:23:19.185Z,73.87
2018-08-16T01:26:23.077Z,74.23
2018-08-16T01:29:27.307Z,73.87
2018-08-16T01:32:31.205Z,74.94
2018-08-16T01:35:35.215Z,73.83
2018-08-16T01:38:39.307Z,73.82
2018-08-16T01:41:43.510Z,74.57
2018-08-16T01:44:47.408Z,73.98
2018-08-16T01:47:51.572Z,74.57
2018-08-16T01:50:55.811Z,74.01
2018-08-16T01:53:59.710Z,74.33
2018-08-16T01:57:03.964Z,74.65
2018-08-16T02:00:09.494Z,74.09
2018-08-16T02:03:13.401Z,74.38
2018-08-16T02:06:17.745Z,74.05
2018-08-16T02:09:22.376Z,74.17
2018-08-16T02:12:26.261Z,74.37
2018-08-16T02:15:30.720Z,74.88
2018-08-16T02:18:34.633Z,74.11
2018-08-16T02:21:38.876Z,74.86
2018-08-16T02:24:42.775Z,74.67
2018-08-16T02:27:46.694Z,74.61
2018-08-16T02:30:50.589Z,74.43
2018-08-16T02:33:55.428Z,74.14
2018-08-16T02:36:59.561Z,74.57
2018-08-16T02:40:04.152Z,74.37
2018-08-16T02:43:08.254Z,74.63
2018-08-16T02:46:12.490Z,74.29
2018-08-16T02:49:16.380Z,74.58
2018-08-16T02:52:20.302Z,74.57
2018-08-16T02:55:24.538Z,74.95
2018-08-16T02:58:28.452Z,75.16
2018-08-16T03:01:32.381Z,74.78
2018-08-16T03:04:36.548Z,75.18
2018-08-16T03:07:40.426Z,74.84
2018-08-16T03:10:44.330Z,75.18
2018-08-16T03:13:48.232Z,73.92
2018-08-16T03:16:52.142Z,74.65
2018-08-16T03:19:56.241Z,74.77
2018-08-16T03:23:00.131Z,74.50
2018-08-16T03:26:04.356Z,74.85
2018-08-16T03:29:08.261Z,74.73
2018-08-16T03:32:12.414Z,74.42
2018-08-16T03:35:16.342Z,75.08
2018-08-16T03:38:20.411Z,75.48
2018-08-16T03:44:46.739Z,75.36
2018-08-16T03:47:50.982Z,75.38
2018-08-16T03:50:55.208Z,76.09
2018-08-16T03:53:59.525Z,75.46
2018-08-16T03:57:03.662Z,74.73
2018-08-16T04:00:08.007Z,75.25
2018-08-16T04:03:12.451Z,75.69
2018-08-16T04:06:16.352Z,75.13
2018-08-16T04:09:20.247Z,75.42
2018-08-16T04:12:24.495Z,75.52
2018-08-16T04:15:28.462Z,75.56
2018-08-16T04:18:32.717Z,75.71
2018-08-16T04:21:36.644Z,75.80
2018-08-16T04:24:40.739Z,75.14
2018-08-16T04:27:44.981Z,75.11
2018-08-16T04:30:49.260Z,75.84
2018-08-16T04:33:53.161Z,74.90
2018-08-16T04:36:57.405Z,74.94
2018-08-16T04:40:01.627Z,75.77
2018-08-16T04:43:05.744Z,75.46
2018-08-16T04:46:09.876Z,74.71
2018-08-16T04:49:14.305Z,75.65
2018-08-16T04:52:18.232Z,75.91
2018-08-16T04:55:22.125Z,76.61
2018-08-16T04:58:26.042Z,76.02
2018-08-16T05:01:29.941Z,76.19
2018-08-16T05:04:33.863Z,77.21
2018-08-16T05:07:38.489Z,76.94
2018-08-16T05:10:42.402Z,76.63
2018-08-16T05:13:46.291Z,76.58
2018-08-16T05:16:50.424Z,77.10
2018-08-16T05:19:54.776Z,76.96
2018-08-16T05:22:58.677Z,76.62
2018-08-16T05:26:03.117Z,76.79
2018-08-16T05:29:07.009Z,76.40
2018-08-16T05:32:11.256Z,76.80
2018-08-16T05:35:15.155Z,77.10
2018-08-16T05:38:19.054Z,77.56
2018-08-16T05:41:23.300Z,77.65
2018-08-16T05:44:27.204Z,77.11
2018-08-16T05:47:31.117Z,76.54
2018-08-16T05:50:35.033Z,76.99
2018-08-16T05:53:39.163Z,76.48
2018-08-16T05:56:43.411Z,75.99
2018-08-16T05:59:47.317Z,76.07
2018-08-16T06:02:51.226Z,75.50
2018-08-16T06:05:55.971Z,76.20
2018-08-16T06:08:59.894Z,75.98
2018-08-16T06:12:04.181Z,75.16
2018-08-16T06:15:08.730Z,75.43
2018-08-16T06:18:12.633Z,76.31
2018-08-16T06:21:17.102Z,76.13
2018-08-16T06:24:21.055Z,75.38
2018-08-16T06:27:24.941Z,76.17
2018-08-16T06:30:29.404Z,75.21
2018-08-16T06:33:33.504Z,76.02
2018-08-16T06:36:37.942Z,76.24
2018-08-16T06:39:41.858Z,76.24
2018-08-16T06:42:46.644Z,76.23
2018-08-16T06:45:50.549Z,76.34
2018-08-16T06:48:54.786Z,75.49
2018-08-16T06:51:58.709Z,76.36
2018-08-16T06:55:03.589Z,76.42
2018-08-16T06:58:07.977Z,76.33
2018-08-16T07:01:12.075Z,75.41
2018-08-16T07:04:16.182Z,75.49
2018-08-16T07:07:20.325Z,76.53
2018-08-16T07:10:24.418Z,75.19
2018-08-16T07:13:28.888Z,75.96
2018-08-16T07:16:33.121Z,75.31
2018-08-16T07:19:37.042Z,76.21
2018-08-16T07:22:40.937Z,76.15
2018-08-16T07:25:44.844Z,76.17
2018-08-16T07:28:49.078Z,76.34
2018-08-16T07:31:52.960Z,75.41
2018-08-16T07:34:57.047Z,75.56
2018-08-16T07:38:00.957Z,76.11
2018-08-16T07:41:04.862Z,75.56
2018-08-16T07:44:09.052Z,76.48
2018-08-16T07:47:12.966Z,76.42
2018-08-16T07:50:16.873Z,75.84
2018-08-16T07:53:20.945Z,75.67
2018-08-16T07:56:25.433Z,76.55
2018-08-16T07:59:29.575Z,76.26
2018-08-16T08:02:33.491Z,75.29
2018-08-16T08:05:37.401Z,75.64
2018-08-16T08:08:41.494Z,76.24
2018-08-16T08:11:45.422Z,76.13
2018-08-16T08:14:49.345Z,75.50
2018-08-16T08:17:53.471Z,76.31
2018-08-16T08:20:57.709Z,75.36
2018-08-16T08:24:01.894Z,76.03
2018-08-16T08:27:06.505Z,75.52
2018-08-16T08:30:12.280Z,76.17
2018-08-16T08:33:16.188Z,75.35
2018-08-16T08:36:31.292Z,75.73
2018-08-16T08:39:35.543Z,75.31
2018-08-16T08:42:39.478Z,75.63
2018-08-16T08:45:43.695Z,76.26
2018-08-16T08:48:47.928Z,75.34
2018-08-16T08:51:52.805Z,75.39
2018-08-16T08:55:07.863Z,75.89
2018-08-16T08:58:23.090Z,75.89
2018-08-16T09:01:27.873Z,75.77
2018-08-16T09:04:32.297Z,75.68
2018-08-16T09:07:36.373Z,75.87
2018-08-16T09:10:52.427Z,75.28
2018-08-16T09:14:08.554Z,74.99
2018-08-16T09:17:12.668Z,74.74
2018-08-16T09:20:16.762Z,74.68
2018-08-16T09:23:20.841Z,75.24
2018-08-16T09:26:30.118Z,74.32
2018-08-16T09:30:42.754Z,74.25
2018-08-16T09:33:57.960Z,74.75
2018-08-16T09:37:01.878Z,74.34
2018-08-16T09:40:06.439Z,73.96
2018-08-16T09:43:10.338Z,74.48
2018-08-16T09:47:04.310Z,73.18
2018-08-16T09:50:08.222Z,72.89
2018-08-16T09:53:12.370Z,72.64
2018-08-16T09:56:16.269Z,72.95
2018-08-16T09:59:20.241Z,73.32
2018-08-16T10:02:24.500Z,72.24
2018-08-16T10:05:28.585Z,70.62
2018-08-16T10:08:32.519Z,71.39
2018-08-16T10:11:36.467Z,70.89
2018-08-16T10:14:40.403Z,70.60
2018-08-16T10:17:44.323Z,69.68
2018-08-16T10:20:48.259Z,68.41
2018-08-16T10:23:52.329Z,69.45
2018-08-16T10:26:56.302Z,69.65
2018-08-16T10:30:00.687Z,68.98
2018-08-16T10:33:04.793Z,69.77
2018-08-16T10:36:09.154Z,69.09
2018-08-16T10:39:17.254Z,69.78
2018-08-16T10:42:21.173Z,68.28
2018-08-16T10:45:25.585Z,68.39
2018-08-16T10:48:30.119Z,67.99
2018-08-16T10:51:34.253Z,68.83
2018-08-16T10:54:38.149Z,68.07
2018-08-16T10:57:42.084Z,68.46
2018-08-16T11:00:45.998Z,68.22
2018-08-16T11:03:49.914Z,69.04
2018-08-16T11:06:53.801Z,67.89
2018-08-16T11:09:57.966Z,67.88
2018-08-16T11:13:02.003Z,67.59
2018-08-16T11:16:05.925Z,67.53
2018-08-16T11:19:09.840Z,68.05
2018-08-16T11:22:13.738Z,67.04
2018-08-16T11:25:17.652Z,67.15
2018-08-16T11:28:21.533Z,67.48
2018-08-16T11:31:25.750Z,68.29
2018-08-16T11:34:29.982Z,67.86
2018-08-16T11:37:33.877Z,67.69
2018-08-16T11:40:38.033Z,67.29
2018-08-16T11:43:42.141Z,66.83
2018-08-16T11:46:46.050Z,66.00
2018-08-16T11:49:49.941Z,66.78
2018-08-16T11:52:54.183Z,66.81
2018-08-16T11:55:58.113Z,66.93
2018-08-16T11:59:02.006Z,66.32
2018-08-16T12:02:06.106Z,65.45
2018-08-16T12:05:10.218Z,66.87
2018-08-16T12:08:14.121Z,66.04
2018-08-16T12:11:18.082Z,66.17
2018-08-16T12:14:22.165Z,65.54
2018-08-16T12:17:26.592Z,65.75
2018-08-16T12:20:30.516Z,65.29
2018-08-16T12:23:34.596Z,65.13
2018-08-16T12:26:38.540Z,65.56
2018-08-16T12:29:42.451Z,65.83
2018-08-16T12:32:46.668Z,64.63
2018-08-16T12:35:50.766Z,64.35
2018-08-16T12:38:54.682Z,64.71
2018-08-16T12:41:58.574Z,65.02
2018-08-16T12:45:02.461Z,65.44
2018-08-16T12:48:06.442Z,64.91
2018-08-16T12:51:10.658Z,64.64
2018-08-16T12:54:14.573Z,64.52
2018-08-16T12:57:18.487Z,64.22
2018-08-16T13:00:22.389Z,63.65
2018-08-16T13:03:26.292Z,64.43
2018-08-16T13:06:30.187Z,63.34
2018-08-16T13:09:34.083Z,64.26
2018-08-16T13:12:38.551Z,63.07
2018-08-16T13:15:42.652Z,63.46
2018-08-16T13:18:46.556Z,63.15
2018-08-16T13:21:50.802Z,63.17
2018-08-16T13:24:55.041Z,63.06
2018-08-16T13:27:58.943Z,62.22
2018-08-16T13:31:02.993Z,63.22
2018-08-16T13:34:06.909Z,63.03
2018-08-16T13:37:11.398Z,63.09
2018-08-16T13:40:15.449Z,63.18
2018-08-16T13:43:19.332Z,62.17
2018-08-16T13:46:23.236Z,61.80
2018-08-16T13:49:27.144Z,61.92
2018-08-16T13:52:31.389Z,61.05
2018-08-16T13:55:35.463Z,61.05
2018-08-16T13:58:39.578Z,61.94
2018-08-16T14:01:43.857Z,61.16
2018-08-16T14:04:47.914Z,61.13
2018-08-16T14:07:52.033Z,60.73
2018-08-16T14:10:55.937Z,60.31
2018-08-16T14:13:59.839Z,60.70
2018-08-16T14:17:03.769Z,61.20
2018-08-16T14:20:08.607Z,59.89
2018-08-16T14:23:12.706Z,59.18
2018-08-16T14:26:16.968Z,59.34
2018-08-16T14:29:20.852Z,58.95
2018-08-16T14:32:24.834Z,58.99
2018-08-16T14:35:28.881Z,59.56
2018-08-16T14:38:33.000Z,59.80
2018-08-16T14:41:37.127Z,59.43
2018-08-16T14:44:41.073Z,59.11
2018-08-16T14:47:45.322Z,59.03
2018-08-16T14:50:49.226Z,60.12
2018-08-16T14:53:53.257Z,59.32
2018-08-16T14:56:57.235Z,59.77
2018-08-16T15:00:01.319Z,59.19
2018-08-16T15:03:05.430Z,59.00
2018-08-16T15:06:09.321Z,59.08
2018-08-16T15:09:13.265Z,58.49
2018-08-16T15:12:17.196Z,58.24
2018-08-16T15:15:21.208Z,58.30
2018-08-16T15:18:26.098Z,57.48
2018-08-16T15:21:29.969Z,57.77
2018-08-16T15:24:33.961Z,58.40
2018-08-16T15:27:38.234Z,58.15
2018-08-16T15:30:42.301Z,58.53
2018-08-16T15:33:46.186Z,58.43
2018-08-16T15:36:50.075Z,57.47
2018-08-16T15:39:54.166Z,58.38
2018-08-16T15:42:58.062Z,57.85
2018-08-16T15:46:01.957Z,58.25
2018-08-16T15:49:06.270Z,58.30
2018-08-16T15:52:10.157Z,58.07
2018-08-16T15:55:14.053Z,57.64
2018-08-16T15:58:18.489Z,58.47
2018-08-16T16:01:22.389Z,57.45
2018-08-16T16:04:26.283Z,58.10
2018-08-16T16:07:30.194Z,58.65
2018-08-16T16:10:35.027Z,58.44
2018-08-16T16:13:40.662Z,58.68
2018-08-16T16:16:44.549Z,58.43
2018-08-16T16:19:48.473Z,59.13
2018-08-16T16:22:52.362Z,59.32
2018-08-16T16:25:56.266Z,58.40
2018-08-16T16:29:00.164Z,58.61
2018-08-16T16:32:04.057Z,59.10
2018-08-16T16:35:08.041Z,59.11
2018-08-16T16:38:11.933Z,58.72
2018-08-16T16:41:16.035Z,58.71
2018-08-16T16:44:19.945Z,58.99
2018-08-16T16:47:24.174Z,59.63
2018-08-16T16:50:28.089Z,58.75
2018-08-16T16:53:32.334Z,59.83
2018-08-16T16:56:36.544Z,59.87
2018-08-16T16:59:40.785Z,59.18
2018-08-16T17:02:44.697Z,59.97
2018-08-16T17:05:48.589Z,59.95
2018-08-16T17:08:52.491Z,59.74
2018-08-16T17:11:56.710Z,60.35
2018-08-16T17:15:00.633Z,59.39
2018-08-16T17:18:05.122Z,59.60
2018-08-16T17:21:09.105Z,60.57
2018-08-16T17:24:13.346Z,60.49
2018-08-16T17:27:17.257Z,59.73
2018-08-16T17:30:21.170Z,60.19
2018-08-16T17:33:25.089Z,60.37
2018-08-16T17:36:29.008Z,59.69
2018-08-16T17:39:33.097Z,60.41
2018-08-16T17:42:36.989Z,59.92
2018-08-16T17:45:40.888Z,60.48
2018-08-16T17:48:45.113Z,60.00
2018-08-16T17:51:49.017Z,59.85
2018-08-16T17:54:52.966Z,60.96
2018-08-16T17:57:56.876Z,59.79
2018-08-16T18:01:00.838Z,59.65
2018-08-16T18:04:04.723Z,60.55
2018-08-16T18:07:09.188Z,59.78
2018-08-16T18:10:13.139Z,60.84
2018-08-16T18:13:17.072Z,60.08
2018-08-16T18:16:23.539Z,60.65
2018-08-16T18:19:27.645Z,60.42
2018-08-16T18:22:31.878Z,60.58
2018-08-16T18:25:35.933Z,60.50
2018-08-16T18:28:39.827Z,60.40
2018-08-16T18:31:43.717Z,60.52
2018-08-16T18:34:47.959Z,61.24
2018-08-16T18:37:52.057Z,60.99
2018-08-16T18:40:56.289Z,61.75
2018-08-16T18:44:00.534Z,61.04
2018-08-16T18:47:04.457Z,61.47
2018-08-16T18:50:08.350Z,61.53
2018-08-16T18:53:12.253Z,62.42
2018-08-16T18:56:16.695Z,62.01
2018-08-16T18:59:20.905Z,62.06
2018-08-16T19:02:24.976Z,62.30
2018-08-16T19:05:28.928Z,63.08
2018-08-16T19:08:33.321Z,63.09
2018-08-16T19:11:37.225Z,63.30
2018-08-16T19:14:41.480Z,62.64
2018-08-16T19:17:45.380Z,63.15
2018-08-16T19:20:49.801Z,63.62
2018-08-16T19:23:53.909Z,63.82
2018-08-16T19:26:57.806Z,63.77
2018-08-16T19:30:01.779Z,63.11
2018-08-16T19:33:05.826Z,64.14
2018-08-16T19:36:09.799Z,63.46
2018-08-16T19:39:13.833Z,63.42
2018-08-16T19:42:18.062Z,63.07
2018-08-16T19:45:21.974Z,64.02
2018-08-16T19:48:26.169Z,63.27
2018-08-16T19:51:31.108Z,63.39
2018-08-16T19:54:35.243Z,63.90
2018-08-16T19:57:39.483Z,64.33
2018-08-16T20:00:43.622Z,64.22
2018-08-16T20:03:47.850Z,64.54
2018-08-16T20:06:51.981Z,64.45
2018-08-16T20:09:59.866Z,63.71
2018-08-16T20:13:03.982Z,64.19
2018-08-16T20:16:08.039Z,64.38
2018-08-16T20:19:12.152Z,64.76
2018-08-16T20:22:18.789Z,63.90
2018-08-16T20:25:22.685Z,63.81
2018-08-16T20:28:26.661Z,63.98
2018-08-16T20:31:30.697Z,64.43
2018-08-16T20:34:34.845Z,64.25
2018-08-16T20:37:38.789Z,64.68
2018-08-16T20:40:43.009Z,65.01
2018-08-16T20:43:47.157Z,65.23
2018-08-16T20:46:51.261Z,64.53
2018-08-16T20:49:55.153Z,64.33
2018-08-16T20:52:59.274Z,64.66
2018-08-16T20:56:03.173Z,64.74
2018-08-16T20:59:07.712Z,64.73
2018-08-16T21:02:11.597Z,65.40
2018-08-16T21:05:15.669Z,65.05
2018-08-16T21:08:19.686Z,66.02
2018-08-16T21:11:23.606Z,65.12
2018-08-16T21:14:27.521Z,65.69
2018-08-16T21:17:31.451Z,66.23
2018-08-16T21:20:35.341Z,66.50
2018-08-16T21:23:39.229Z,66.44
2018-08-16T21:26:43.132Z,66.44
2018-08-16T21:29:47.029Z,65.70
2018-08-16T21:32:50.908Z,66.58
2018-08-16T21:35:55.129Z,66.82
2018-08-16T21:38:59.026Z,66.05
2018-08-16T21:42:02.924Z,66.45
2018-08-16T21:45:06.816Z,66.21
2018-08-16T21:48:10.739Z,66.58
2018-08-16T21:51:14.837Z,66.50
2018-08-16T21:54:18.725Z,66.71
2018-08-16T21:57:22.623Z,66.80
2018-08-16T22:00:44.949Z,66.53
2018-08-16T22:03:48.839Z,66.47
2018-08-16T22:07:04.487Z,66.64
2018-08-16T22:10:08.056Z,67.32
2018-08-16T22:13:11.944Z,66.89
2018-08-16T22:16:15.869Z,67.26
2018-08-16T22:19:20.288Z,66.62
2018-08-16T22:22:24.198Z,67.11
2018-08-16T22:25:28.329Z,68.04
2018-08-16T22:28:32.451Z,67.55
2018-08-16T22:31:36.686Z,67.65
2018-08-16T22:34:40.602Z,67.34
2018-08-16T22:37:44.926Z,67.62
2018-08-16T22:40:48.821Z,68.17
2018-08-16T22:43:52.729Z,68.40
2018-08-16T22:46:56.625Z,67.78
2018-08-16T22:50:00.530Z,68.36
2018-08-16T22:53:04.491Z,68.33
2018-08-16T22:56:08.560Z,68.40
2018-08-16T22:59:12.461Z,68.24
2018-08-16T23:02:16.359Z,68.47
2018-08-16T23:05:20.264Z,68.63
2018-08-16T23:08:25.226Z,69.14
2018-08-16T23:11:29.462Z,68.56
2018-08-16T23:14:33.368Z,68.97
2018-08-16T23:17:37.905Z,68.93
2018-08-16T23:20:42.221Z,69.80
2018-08-16T23:23:46.109Z,69.22
2018-08-16T23:26:50.078Z,69.40
2018-08-16T23:29:53.949Z,70.26
2018-08-16T23:32:57.849Z,69.87
2018-08-16T23:36:01.744Z,70.35
2018-08-16T23:39:06.071Z,70.15
2018-08-16T23:42:10.280Z,70.12
2018-08-16T23:45:14.176Z,69.66
2018-08-16T23:48:24.325Z,70.32
2018-08-16T23:51:28.212Z,70.54
2018-08-16T23:54:32.195Z,70.29
2018-08-16T23:57:36.316Z,70.82
